Time;durP1;ratioP1;P1;durP2;ratioP2;P2;SDS_P1;SDS_P2;PMS_P1;PMS_P2;Temp;Humidity;BMP_temperature;BMP_pressure;BME280_temperature;BME280_humidity;BME280_pressure;Samples;Min_cycle;Max_cycle;Signal;HPM_P1;HPM_P2
2021/07/27 07:01:05;;;;;;;7.67;6.87;;;18.00;99.90;;;;;;6231806;22;20462;-82
2021/07/27 07:04:21;;;;;;;;;;;;;;;;;;;;;
2021/07/27 07:15:10;;;;;;;9.57;6.97;;;18.40;99.90;;;;;;6219850;22;20443;-83
2021/07/27 07:17:47;;;;;;;7.60;6.90;;;18.60;99.90;;;;;;6239240;22;20525;-86
2021/07/27 09:05:16;;;;;;;7.90;6.63;;;22.70;99.90;;;;;;6266373;22;20446;-91
2021/07/27 09:40:07;;;;;;;6.87;6.27;;;23.60;99.90;;;;;;6234292;22;20486;-86
2021/07/27 09:47:56;;;;;;;6.67;6.07;;;24.00;99.90;;;;;;6266174;22;20436;-89
2021/07/27 10:01:43;;;;;;;6.63;6.13;;;25.10;99.90;;;;;;6263115;22;20443;-87
2021/07/27 10:04:46;;;;;;;6.70;6.20;;;25.40;99.90;;;;;;6265128;22;20404;-87
2021/07/27 10:23:41;;;;;;;7.83;7.13;;;24.40;99.90;;;;;;6242263;22;20522;-87
2021/07/27 11:47:59;;;;;;;;;;;;;;;;;;;;;
2021/07/27 12:06:40;;;;;;;5.00;4.50;;;28.00;87.70;;;;;;6223782;22;20438;-87
2021/07/27 12:09:09;;;;;;;5.00;4.50;;;27.80;91.20;;;;;;6137906;23;20407;-88
2021/07/27 12:11:34;;;;;;;3.90;3.57;;;27.60;86.90;;;;;;6148257;23;20402;-88
2021/07/27 12:14:10;;;;;;;4.60;4.20;;;27.50;88.20;;;;;;6147796;23;20785;-89
2021/07/27 12:16:37;;;;;;;4.60;4.27;;;27.50;89.40;;;;;;6147743;23;20164;-87
2021/07/27 12:19:02;;;;;;;5.17;4.77;;;26.80;87.40;;;;;;6147009;23;20407;-87
2021/07/27 12:21:28;;;;;;;5.20;4.80;;;26.50;88.00;;;;;;6174210;23;20406;-87
2021/07/27 12:23:54;;;;;;;5.13;4.73;;;26.20;90.80;;;;;;6148317;23;20199;-86
2021/07/27 12:26:20;;;;;;;4.63;4.30;;;26.30;91.20;;;;;;6147206;23;20465;-87
2021/07/27 12:29:00;;;;;;;4.67;4.37;;;26.60;93.00;;;;;;6147629;23;20195;-88
2021/07/27 12:31:27;;;;;;;5.00;4.60;;;26.80;90.50;;;;;;6188664;22;20442;-86
2021/07/27 12:33:53;;;;;;;5.30;4.80;;;27.30;89.50;;;;;;6176547;23;20501;-87
2021/07/27 12:36:20;;;;;;;4.80;4.40;;;27.60;87.40;;;;;;6176642;23;20171;-86
2021/07/27 12:38:45;;;;;;;5.63;5.13;;;27.60;87.60;;;;;;6179303;23;20399;-87
2021/07/27 12:41:11;;;;;;;4.40;4.00;;;27.40;90.10;;;;;;6179305;23;20452;-86
2021/07/27 12:43:37;;;;;;;5.17;4.77;;;27.80;89.30;;;;;;6178158;23;20727;-86
2021/07/27 12:46:03;;;;;;;5.57;4.90;;;28.10;87.70;;;;;;6174900;23;20163;-87
2021/07/27 12:48:31;;;;;;;5.63;5.13;;;28.40;88.30;;;;;;6203036;23;20174;-86
2021/07/27 12:50:56;;;;;;;5.13;4.50;;;28.40;84.40;;;;;;6178657;23;20144;-86
2021/07/27 12:53:26;;;;;;;5.37;5.00;;;28.30;87.70;;;;;;6176581;23;20414;-86
2021/07/27 12:55:53;;;;;;;5.77;5.30;;;28.60;89.10;;;;;;6204305;23;20144;-86
2021/07/27 12:58:19;;;;;;;5.57;5.00;;;28.40;91.20;;;;;;6205321;23;20489;-86
2021/07/27 13:00:54;;;;;;;5.77;5.20;;;28.40;93.20;;;;;;6177281;23;20426;-87
2021/07/27 13:03:20;;;;;;;5.50;4.80;;;29.10;90.50;;;;;;6177029;23;20225;-86
2021/07/27 13:05:46;;;;;;;5.43;5.03;;;29.20;86.90;;;;;;6177851;23;20406;-87
2021/07/27 13:08:14;;;;;;;5.37;4.97;;;29.20;92.60;;;;;;6177370;23;20175;-87
2021/07/27 13:10:40;;;;;;;5.63;5.13;;;29.60;89.50;;;;;;6177221;23;20621;-87
2021/07/27 13:13:06;;;;;;;6.00;5.50;;;29.80;85.80;;;;;;6204538;23;20382;-87
2021/07/27 13:15:31;;;;;;;5.40;5.00;;;29.40;86.30;;;;;;6178219;23;20622;-87
2021/07/27 13:17:57;;;;;;;5.73;5.23;;;29.90;86.70;;;;;;6178312;23;20168;-86
2021/07/27 13:20:23;;;;;;;6.23;5.70;;;29.20;84.40;;;;;;6178578;23;20186;-86
2021/07/27 13:22:49;;;;;;;5.83;5.43;;;28.50;90.30;;;;;;6179919;23;20187;-87
2021/07/27 13:25:22;;;;;;;5.97;5.57;;;27.80;90.00;;;;;;6178898;23;20737;-86
2021/07/27 13:27:49;;;;;;;5.70;5.20;;;27.60;89.10;;;;;;6200614;23;20167;-87
2021/07/27 13:30:15;;;;;;;6.20;5.60;;;27.50;91.20;;;;;;6205650;23;20773;-86
2021/07/27 13:32:41;;;;;;;5.93;5.40;;;26.90;90.30;;;;;;6178361;23;20415;-86
2021/07/27 13:35:08;;;;;;;6.07;5.57;;;26.70;92.00;;;;;;6205374;23;20163;-86
2021/07/27 13:37:34;;;;;;;6.07;5.57;;;27.40;92.50;;;;;;6178065;23;20398;-86
2021/07/27 13:40:00;;;;;;;6.60;6.10;;;27.70;93.50;;;;;;6206662;23;20421;-86
2021/07/27 13:42:26;;;;;;;6.57;6.07;;;27.90;92.50;;;;;;6207112;23;20183;-86
2021/07/27 13:44:51;;;;;;;6.03;5.40;;;27.80;92.80;;;;;;6207829;23;20210;-87
2021/07/27 13:47:17;;;;;;;5.63;5.13;;;27.90;92.20;;;;;;6207160;23;20229;-87
2021/07/27 13:49:43;;;;;;;6.40;5.80;;;27.60;92.20;;;;;;6180494;23;20498;-87
2021/07/27 13:52:10;;;;;;;6.20;5.70;;;27.30;92.90;;;;;;6180765;23;20164;-86
2021/07/27 13:54:40;;;;;;;6.03;5.63;;;27.10;93.80;;;;;;6208010;23;20437;-87
2021/07/27 13:57:06;;;;;;;6.70;6.20;;;27.30;93.20;;;;;;6169344;23;20497;-87
2021/07/27 13:59:33;;;;;;;5.90;5.40;;;27.50;94.30;;;;;;6178906;23;20422;-86
2021/07/27 14:01:59;;;;;;;6.40;5.87;;;27.50;94.20;;;;;;6207483;23;20159;-87
2021/07/27 14:04:28;;;;;;;6.60;6.10;;;27.30;94.00;;;;;;6208388;23;20435;-86
2021/07/27 14:06:54;;;;;;;6.23;5.70;;;27.10;93.20;;;;;;6155904;23;20163;-86
2021/07/27 14:09:20;;;;;;;6.60;6.00;;;27.00;93.30;;;;;;6181000;23;20424;-86
2021/07/27 14:11:45;;;;;;;6.37;5.87;;;27.00;93.30;;;;;;6180541;23;20493;-86
2021/07/27 14:14:11;;;;;;;6.20;5.73;;;27.20;93.90;;;;;;6179037;23;20171;-86
2021/07/27 14:16:37;;;;;;;5.90;5.50;;;27.30;94.00;;;;;;6207377;23;20163;-86
2021/07/27 14:19:03;;;;;;;6.17;5.67;;;27.40;94.60;;;;;;6206869;23;20521;-87
2021/07/27 14:21:29;;;;;;;6.80;5.77;;;27.80;93.40;;;;;;6180797;23;20460;-87
2021/07/27 14:23:55;;;;;;;6.13;5.63;;;28.10;93.20;;;;;;6206850;23;20521;-86
2021/07/27 14:26:21;;;;;;;6.00;5.50;;;28.70;93.00;;;;;;6180252;23;20335;-87
2021/07/27 14:29:06;;;;;;;5.73;5.23;;;28.60;92.60;;;;;;6206049;23;20385;-87
2021/07/27 14:31:32;;;;;;;6.43;5.90;;;29.80;92.70;;;;;;6159544;23;20190;-87
2021/07/27 14:34:21;;;;;;;6.20;5.60;;;31.80;84.80;;;;;;6204201;23;20387;-88
2021/07/27 14:38:11;;;;;;;6.10;5.60;;;33.00;81.40;;;;;;6183216;23;20163;-90
2021/07/27 14:49:23;;;;;;;;;;;;;;;;;;;;;
2021/07/27 14:52:24;;;;;;;44.80;22.83;;;37.40;55.60;;;;;;6205894;23;20237;-89
2021/07/27 15:26:11;;;;;;;5.30;4.90;;;36.30;53.70;;;;;;6202208;23;20198;-86
2021/07/27 15:28:44;;;;;;;5.87;5.47;;;37.80;51.00;;;;;;6177346;23;20262;-89
2021/07/27 15:31:10;;;;;;;5.83;5.43;;;36.10;52.50;;;;;;6176417;23;20480;-88
2021/07/27 15:34:21;;;;;;;;;;;;;;;;;;;;;
2021/07/27 15:40:17;;;;;;;6.20;5.70;;;33.00;62.40;;;;;;6244641;22;20462;-88
2021/07/27 15:42:43;;;;;;;5.97;5.50;;;32.50;65.50;;;;;;6237983;22;20977;-88
2021/07/27 15:45:12;;;;;;;6.50;6.00;;;31.70;68.30;;;;;;6239470;22;20389;-89
2021/07/27 15:47:53;;;;;;;7.73;6.20;;;31.80;66.30;;;;;;6238522;22;20166;-88
2021/07/27 15:50:22;;;;;;;8.10;6.30;;;31.60;69.50;;;;;;6236985;22;20396;-88
2021/07/27 15:52:48;;;;;;;7.47;6.67;;;30.10;72.20;;;;;;6213259;22;20451;-88
2021/07/27 15:55:14;;;;;;;6.33;5.73;;;29.90;73.60;;;;;;6238138;22;20870;-89
2021/07/27 15:57:42;;;;;;;6.20;5.70;;;29.50;77.30;;;;;;6264030;22;20485;-87
2021/07/27 16:00:11;;;;;;;6.47;5.87;;;30.10;74.50;;;;;;6236054;22;20799;-88
2021/07/27 16:02:37;;;;;;;7.27;6.67;;;30.30;71.30;;;;;;6236230;22;20997;-88
2021/07/27 16:05:05;;;;;;;5.70;5.30;;;31.20;67.80;;;;;;6265772;22;20385;-89
2021/07/27 16:07:53;;;;;;;5.63;5.23;;;33.70;65.00;;;;;;6213165;22;20371;-89
2021/07/27 16:10:29;;;;;;;6.13;5.63;;;36.50;58.70;;;;;;6237107;22;20504;-90
2021/07/27 16:12:55;;;;;;;5.70;5.23;;;35.30;55.60;;;;;;6236834;22;20444;-89
2021/07/27 16:15:20;;;;;;;6.20;5.70;;;33.40;59.60;;;;;;6265408;22;20392;-89
2021/07/27 16:17:49;;;;;;;6.47;5.80;;;33.40;59.70;;;;;;6264529;22;20836;-90
2021/07/27 16:20:17;;;;;;;6.23;5.63;;;33.20;60.80;;;;;;6264219;22;20165;-89
2021/07/27 16:22:45;;;;;;;6.70;6.10;;;31.80;67.60;;;;;;6238810;22;20399;-90
2021/07/27 16:25:12;;;;;;;6.60;6.10;;;31.00;73.00;;;;;;6237684;22;20385;-89
2021/07/27 16:30:47;;;;;;;6.60;6.10;;;30.70;73.60;;;;;;6263218;22;20876;-82
2021/07/27 16:33:12;;;;;;;6.50;5.83;;;29.70;77.10;;;;;;6265158;22;20436;-82
2021/07/27 16:35:38;;;;;;;6.50;6.00;;;28.80;80.80;;;;;;6266514;22;20584;-83
2021/07/27 16:38:07;;;;;;;6.70;6.20;;;27.90;82.00;;;;;;6265775;22;20158;-83
2021/07/27 16:40:32;;;;;;;6.23;5.80;;;27.30;85.00;;;;;;6237960;22;20177;-82
2021/07/27 16:42:58;;;;;;;6.33;5.83;;;26.80;88.10;;;;;;6266089;22;21351;-82
2021/07/27 16:45:23;;;;;;;6.87;6.37;;;26.50;91.90;;;;;;6265153;22;20183;-82
2021/07/27 16:47:49;;;;;;;6.43;5.93;;;26.10;95.30;;;;;;6265861;22;20184;-82
2021/07/27 16:50:15;;;;;;;7.70;6.80;;;25.90;96.20;;;;;;6264976;22;20178;-83
2021/07/27 16:52:40;;;;;;;9.33;6.67;;;25.90;94.80;;;;;;6265215;22;20193;-82
2021/07/27 16:55:06;;;;;;;7.47;5.93;;;25.80;97.10;;;;;;6237543;22;20196;-82
2021/07/27 16:57:33;;;;;;;6.67;6.17;;;25.70;97.60;;;;;;6266245;22;20154;-82
2021/07/27 16:59:59;;;;;;;7.00;6.40;;;25.70;97.00;;;;;;6264613;22;20397;-82
2021/07/27 17:02:24;;;;;;;6.63;6.13;;;25.70;96.50;;;;;;6266092;22;20381;-82
2021/07/27 17:04:53;;;;;;;7.30;5.97;;;25.70;97.80;;;;;;6265299;22;20158;-84
2021/07/27 17:07:20;;;;;;;6.33;5.73;;;25.70;93.50;;;;;;6238392;22;20296;-83
2021/07/27 17:09:47;;;;;;;6.30;5.70;;;25.70;93.90;;;;;;6265321;22;20702;-83
2021/07/27 17:12:13;;;;;;;6.07;5.30;;;25.50;93.80;;;;;;6264202;22;20389;-83
2021/07/27 17:14:38;;;;;;;6.53;5.40;;;25.40;93.20;;;;;;6264982;22;20232;-83
2021/07/27 17:18:31;;;;;;;;;;;;;;;;;;;;;
2021/07/27 17:20:22;;;;;;;5.80;5.30;;;25.20;93.60;;;;;;6226960;22;20158;-83
2021/07/27 17:23:21;;;;;;;6.07;5.57;;;25.00;93.40;;;;;;6230052;22;20399;-87
2021/07/27 17:37:30;;;;;;;6.43;5.63;;;24.70;93.60;;;;;;6203252;22;20784;-85
2021/07/27 17:40:47;;;;;;;6.13;5.63;;;24.60;94.70;;;;;;6192086;23;20417;-86
2021/07/27 18:07:47;;;;;;;5.90;4.87;;;24.10;92.90;;;;;;6204624;23;20444;-86
2021/07/27 18:10:15;;;;;;;5.57;5.10;;;24.00;92.70;;;;;;6254158;22;20401;-87
2021/07/27 18:18:05;;;;;;;5.00;4.60;;;23.90;92.60;;;;;;6222236;22;20475;-87
2021/07/27 18:24:09;;;;;;;5.23;4.73;;;23.90;92.40;;;;;;6233667;22;20524;-84
2021/07/27 19:29:42;;;;;;;6.20;5.70;;;22.70;96.20;;;;;;6155581;22;20490;-84
2021/07/27 19:32:45;;;;;;;6.27;5.60;;;22.70;96.20;;;;;;6054448;23;21368;-86
2021/07/27 19:37:53;;;;;;;6.77;5.20;;;22.50;96.90;;;;;;6164271;22;21656;-85
2021/07/27 19:40:58;;;;;;;5.80;5.30;;;22.40;97.00;;;;;;6201056;23;20433;-86
2021/07/27 19:47:05;;;;;;;5.90;5.23;;;22.40;97.00;;;;;;6190811;23;20383;-83
2021/07/27 19:55:39;;;;;;;6.07;5.47;;;22.30;97.00;;;;;;6174290;22;20437;-86
2021/07/27 19:58:17;;;;;;;5.40;5.00;;;22.40;96.50;;;;;;6080798;23;20422;-87
2021/07/27 20:01:10;;;;;;;6.03;5.43;;;22.50;96.20;;;;;;6214899;23;20410;-86
2021/07/27 20:03:37;;;;;;;6.53;5.77;;;22.40;96.20;;;;;;6205269;23;20374;-86
2021/07/27 20:06:11;;;;;;;6.10;5.60;;;22.30;96.50;;;;;;6202026;23;20445;-86
2021/07/27 20:12:32;;;;;;;5.97;5.30;;;22.30;96.50;;;;;;6203522;23;20418;-86
2021/07/27 20:15:42;;;;;;;6.10;5.50;;;22.30;96.40;;;;;;6201226;23;20425;-86
2021/07/27 20:18:29;;;;;;;6.43;5.10;;;22.30;96.40;;;;;;6202304;23;20393;-86
2021/07/27 20:21:21;;;;;;;6.00;5.50;;;22.30;96.60;;;;;;6200841;23;20426;-87
2021/07/27 20:23:50;;;;;;;6.07;5.30;;;22.30;96.70;;;;;;6199233;23;20394;-86
2021/07/27 20:26:34;;;;;;;6.77;5.53;;;22.40;96.60;;;;;;6198909;23;20402;-86
2021/07/27 20:29:37;;;;;;;6.03;5.23;;;22.30;96.90;;;;;;6201728;23;20715;-86
2021/07/27 20:34:45;;;;;;;8.40;7.00;;;22.10;99.50;;;;;;6232462;22;20969;-85
2021/07/27 23:15:16;;;;;;;10.53;9.40;;;18.20;99.90;;;;;;6267103;22;20925;-87
2021/07/27 23:18:20;;;;;;;10.30;9.30;;;18.20;99.90;;;;;;6238811;22;20785;-87
2021/07/27 23:20:46;;;;;;;10.53;9.43;;;18.20;99.90;;;;;;6239047;22;20472;-89
2021/07/27 23:23:55;;;;;;;11.07;9.97;;;18.20;99.90;;;;;;6240066;22;20812;-90
2021/07/27 23:34:17;;;;;;;;;;;;;;;;;;;;;
